Terminal Aerodrome Forecast
Issued by NWS

Home | Current Version | Previous Version | Graphics & Text | Print | Product List | Glossary On
Versions: 1 2 3 4 5 6 7 8 9 10 11 12
000
FTUS43 KIWX 241400 AAA
TAFSBN
TAF AMD
KSBN 241437Z 2415/2512 01011KT 6SM -RA BR SCT020 OVC035
      TEMPO 2415/2418 4SM -RA BR OVC020
     FM241800 32010KT 4SM -RA BR OVC008
     FM242100 34016G23KT 1 1/2SM -RASN BR OVC004
     FM242300 28015G23KT 3/4SM -SN BR OVC004
     FM250600 26014G23KT 3SM -SN OVC012=

USA.gov is the U.S. government's official web portal to all federal, state and local government web resources and services.